Time;durP1;ratioP1;P1;durP2;ratioP2;P2;SDS_P1;SDS_P2;PMS_P1;PMS_P2;Temp;Humidity;BMP_temperature;BMP_pressure;BME280_temperature;BME280_humidity;BME280_pressure;Samples;Min_cycle;Max_cycle;Signal;HPM_P1;HPM_P2
2024/02/27 00:02:12;;;;;;;4.4;3.1;;;;;;;;;;;;;
2024/02/27 00:04:37;;;;;;;6.6;3.4;;;;;;;;;;;;;
2024/02/27 00:07:02;;;;;;;4.9;3.4;;;;;;;;;;;;;
2024/02/27 00:09:27;;;;;;;4.2;3;;;;;;;;;;;;;
2024/02/27 00:11:52;;;;;;;5.6;3.6;;;;;;;;;;;;;
2024/02/27 00:14:18;;;;;;;7.5;4.1;;;;;;;;;;;;;
2024/02/27 00:16:42;;;;;;;6.5;4;;;;;;;;;;;;;
2024/02/27 00:19:08;;;;;;;8.4;4.2;;;;;;;;;;;;;
2024/02/27 00:21:33;;;;;;;7.2;4.1;;;;;;;;;;;;;
2024/02/27 00:23:58;;;;;;;5.8;3.8;;;;;;;;;;;;;
2024/02/27 00:26:23;;;;;;;5.7;3.6;;;;;;;;;;;;;
2024/02/27 00:28:48;;;;;;;6.1;3.4;;;;;;;;;;;;;
2024/02/27 00:31:13;;;;;;;4.6;3;;;;;;;;;;;;;
2024/02/27 00:33:38;;;;;;;4.6;3.2;;;;;;;;;;;;;
2024/02/27 00:36:03;;;;;;;6.5;4;;;;;;;;;;;;;
2024/02/27 00:38:31;;;;;;;6.1;3.9;;;;;;;;;;;;;
2024/02/27 00:40:53;;;;;;;4.9;3.6;;;;;;;;;;;;;
2024/02/27 00:43:19;;;;;;;3.9;3.1;;;;;;;;;;;;;
2024/02/27 00:45:44;;;;;;;4.9;2.9;;;;;;;;;;;;;
2024/02/27 00:48:09;;;;;;;5.3;3.4;;;;;;;;;;;;;
2024/02/27 00:50:34;;;;;;;4;3.2;;;;;;;;;;;;;
2024/02/27 00:53:00;;;;;;;5.6;3.2;;;;;;;;;;;;;
2024/02/27 00:55:24;;;;;;;5.2;3.3;;;;;;;;;;;;;
2024/02/27 00:57:49;;;;;;;5.5;3.8;;;;;;;;;;;;;
2024/02/27 01:00:15;;;;;;;5.5;3.2;;;;;;;;;;;;;
2024/02/27 01:02:40;;;;;;;4.8;2.9;;;;;;;;;;;;;
2024/02/27 01:05:05;;;;;;;4.7;3;;;;;;;;;;;;;
2024/02/27 01:07:32;;;;;;;4;3.1;;;;;;;;;;;;;
2024/02/27 01:09:57;;;;;;;3.7;2.4;;;;;;;;;;;;;
2024/02/27 01:12:23;;;;;;;3.3;2.5;;;;;;;;;;;;;
2024/02/27 01:14:48;;;;;;;5;3;;;;;;;;;;;;;
2024/02/27 01:17:13;;;;;;;3.6;2.5;;;;;;;;;;;;;
2024/02/27 01:19:41;;;;;;;3.3;2.4;;;;;;;;;;;;;
2024/02/27 01:22:03;;;;;;;6.2;3.1;;;;;;;;;;;;;
2024/02/27 01:24:28;;;;;;;3.6;2.6;;;;;;;;;;;;;
2024/02/27 01:26:53;;;;;;;2.5;2.1;;;;;;;;;;;;;
2024/02/27 01:29:18;;;;;;;4.1;2.2;;;;;;;;;;;;;
2024/02/27 01:31:44;;;;;;;3.7;2.1;;;;;;;;;;;;;
2024/02/27 01:34:09;;;;;;;2.6;2.1;;;;;;;;;;;;;
2024/02/27 01:36:34;;;;;;;3.2;2.3;;;;;;;;;;;;;
2024/02/27 01:38:59;;;;;;;4.4;2.5;;;;;;;;;;;;;
2024/02/27 01:41:24;;;;;;;2.8;2.3;;;;;;;;;;;;;
2024/02/27 01:43:49;;;;;;;3.3;2.5;;;;;;;;;;;;;
2024/02/27 01:46:14;;;;;;;2.6;2.1;;;;;;;;;;;;;
2024/02/27 01:48:39;;;;;;;2.4;2;;;;;;;;;;;;;
2024/02/27 01:51:04;;;;;;;2.8;1.7;;;;;;;;;;;;;
2024/02/27 01:53:30;;;;;;;2;1.6;;;;;;;;;;;;;
2024/02/27 01:55:55;;;;;;;2.1;1.9;;;;;;;;;;;;;
2024/02/27 01:58:20;;;;;;;3.4;1.9;;;;;;;;;;;;;
2024/02/27 02:00:46;;;;;;;2.9;2.2;;;;;;;;;;;;;
2024/02/27 02:03:11;;;;;;;3.8;2.1;;;;;;;;;;;;;
2024/02/27 02:05:35;;;;;;;2.8;2.3;;;;;;;;;;;;;
2024/02/27 02:08:01;;;;;;;3.3;2.2;;;;;;;;;;;;;
2024/02/27 02:10:25;;;;;;;3.4;2.2;;;;;;;;;;;;;
2024/02/27 02:12:51;;;;;;;3.6;2.8;;;;;;;;;;;;;
2024/02/27 02:15:16;;;;;;;3.1;2.5;;;;;;;;;;;;;
2024/02/27 02:17:41;;;;;;;3.3;2.5;;;;;;;;;;;;;
2024/02/27 02:20:08;;;;;;;4.3;2.7;;;;;;;;;;;;;
2024/02/27 02:22:31;;;;;;;4.1;2.3;;;;;;;;;;;;;
2024/02/27 02:24:56;;;;;;;3.1;2.8;;;;;;;;;;;;;
2024/02/27 02:27:23;;;;;;;4.6;3;;;;;;;;;;;;;
2024/02/27 02:29:47;;;;;;;3.4;2.8;;;;;;;;;;;;;
2024/02/27 02:32:12;;;;;;;3.3;2.9;;;;;;;;;;;;;
2024/02/27 02:34:40;;;;;;;3.7;2.9;;;;;;;;;;;;;
2024/02/27 02:37:02;;;;;;;5.3;3.2;;;;;;;;;;;;;
2024/02/27 02:39:27;;;;;;;48.1;30.5;;;;;;;;;;;;;
2024/02/27 02:41:52;;;;;;;5.2;3.2;;;;;;;;;;;;;
2024/02/27 02:44:18;;;;;;;5.1;2.9;;;;;;;;;;;;;
2024/02/27 02:46:43;;;;;;;5.9;3.8;;;;;;;;;;;;;
2024/02/27 02:49:08;;;;;;;3.3;2.5;;;;;;;;;;;;;
2024/02/27 02:51:33;;;;;;;14;8.4;;;;;;;;;;;;;
2024/02/27 02:53:58;;;;;;;4;2.9;;;;;;;;;;;;;
2024/02/27 02:56:23;;;;;;;2.9;2.4;;;;;;;;;;;;;
2024/02/27 02:58:48;;;;;;;3.3;2.3;;;;;;;;;;;;;
2024/02/27 03:01:14;;;;;;;3.7;2.1;;;;;;;;;;;;;
2024/02/27 03:03:39;;;;;;;4.4;2.5;;;;;;;;;;;;;
2024/02/27 03:06:05;;;;;;;3.4;2.6;;;;;;;;;;;;;
2024/02/27 03:08:29;;;;;;;4.4;2.5;;;;;;;;;;;;;
2024/02/27 03:10:55;;;;;;;3.7;2.5;;;;;;;;;;;;;
2024/02/27 03:13:20;;;;;;;3.4;2.7;;;;;;;;;;;;;
2024/02/27 03:15:45;;;;;;;3.5;2.4;;;;;;;;;;;;;
2024/02/27 03:18:10;;;;;;;3.5;2.4;;;;;;;;;;;;;
2024/02/27 03:20:35;;;;;;;5.2;2.9;;;;;;;;;;;;;
2024/02/27 03:23:00;;;;;;;4.9;2.9;;;;;;;;;;;;;
2024/02/27 03:25:25;;;;;;;2.9;2.6;;;;;;;;;;;;;
2024/02/27 03:27:50;;;;;;;3.6;2.5;;;;;;;;;;;;;
2024/02/27 03:31:01;;;;;;;3.1;2.2;;;;;;;;;;;;;
2024/02/27 03:33:27;;;;;;;3.5;2.5;;;;;;;;;;;;;
2024/02/27 03:35:51;;;;;;;4.4;2.7;;;;;;;;;;;;;
2024/02/27 03:38:17;;;;;;;5.6;3;;;;;;;;;;;;;
2024/02/27 03:40:42;;;;;;;3.5;2.8;;;;;;;;;;;;;
2024/02/27 03:43:07;;;;;;;4.5;3;;;;;;;;;;;;;
2024/02/27 03:45:32;;;;;;;5;3.2;;;;;;;;;;;;;
2024/02/27 03:47:57;;;;;;;4.4;2.8;;;;;;;;;;;;;
2024/02/27 03:50:22;;;;;;;5;2.9;;;;;;;;;;;;;
2024/02/27 03:52:47;;;;;;;4.6;2.6;;;;;;;;;;;;;
2024/02/27 03:55:12;;;;;;;3.4;2.5;;;;;;;;;;;;;
2024/02/27 03:57:38;;;;;;;5.1;2.7;;;;;;;;;;;;;
2024/02/27 04:02:27;;;;;;;3.8;2.7;;;;;;;;;;;;;
2024/02/27 04:04:52;;;;;;;5.2;2.7;;;;;;;;;;;;;
2024/02/27 04:07:17;;;;;;;3.7;2.4;;;;;;;;;;;;;
2024/02/27 04:09:42;;;;;;;3.2;2.4;;;;;;;;;;;;;
2024/02/27 04:12:08;;;;;;;4.8;2.7;;;;;;;;;;;;;
2024/02/27 04:14:33;;;;;;;2.7;2.5;;;;;;;;;;;;;
2024/02/27 04:17:01;;;;;;;3.9;2.5;;;;;;;;;;;;;
2024/02/27 04:19:23;;;;;;;3.6;2.6;;;;;;;;;;;;;
2024/02/27 04:21:48;;;;;;;4.3;2.9;;;;;;;;;;;;;
2024/02/27 04:24:13;;;;;;;3.6;2.9;;;;;;;;;;;;;
2024/02/27 04:26:38;;;;;;;4;3.3;;;;;;;;;;;;;
2024/02/27 04:29:03;;;;;;;4.6;3.5;;;;;;;;;;;;;
2024/02/27 04:31:29;;;;;;;3.9;3.1;;;;;;;;;;;;;
2024/02/27 04:33:54;;;;;;;3.4;3;;;;;;;;;;;;;
2024/02/27 04:36:19;;;;;;;3.8;3.1;;;;;;;;;;;;;
2024/02/27 04:38:44;;;;;;;3.4;3.1;;;;;;;;;;;;;
2024/02/27 04:41:09;;;;;;;4.1;3.4;;;;;;;;;;;;;
2024/02/27 04:43:35;;;;;;;5.1;4;;;;;;;;;;;;;
2024/02/27 04:45:59;;;;;;;6.2;4.1;;;;;;;;;;;;;
2024/02/27 04:48:27;;;;;;;5.4;4;;;;;;;;;;;;;
2024/02/27 04:50:50;;;;;;;4.3;3.7;;;;;;;;;;;;;
2024/02/27 04:53:15;;;;;;;5.4;4.3;;;;;;;;;;;;;
2024/02/27 04:55:40;;;;;;;5.1;4.1;;;;;;;;;;;;;
2024/02/27 04:58:05;;;;;;;6.2;4.2;;;;;;;;;;;;;
2024/02/27 05:00:30;;;;;;;6.3;4.5;;;;;;;;;;;;;
2024/02/27 05:02:55;;;;;;;6.6;4.9;;;;;;;;;;;;;
2024/02/27 05:05:20;;;;;;;6.5;4.9;;;;;;;;;;;;;
2024/02/27 05:07:46;;;;;;;6.4;4.9;;;;;;;;;;;;;
2024/02/27 05:10:11;;;;;;;6;4.9;;;;;;;;;;;;;
2024/02/27 05:12:36;;;;;;;6.8;5.2;;;;;;;;;;;;;
2024/02/27 05:15:01;;;;;;;9;5.7;;;;;;;;;;;;;
2024/02/27 05:17:26;;;;;;;8.3;6;;;;;;;;;;;;;
2024/02/27 05:19:52;;;;;;;8.9;6.9;;;;;;;;;;;;;
2024/02/27 05:22:16;;;;;;;7.8;6.4;;;;;;;;;;;;;
2024/02/27 05:24:41;;;;;;;8.2;6.4;;;;;;;;;;;;;
2024/02/27 05:27:06;;;;;;;10.4;7.9;;;;;;;;;;;;;
2024/02/27 05:29:32;;;;;;;9;7.2;;;;;;;;;;;;;
2024/02/27 05:31:56;;;;;;;8.9;6.7;;;;;;;;;;;;;
2024/02/27 05:34:21;;;;;;;9.7;6.6;;;;;;;;;;;;;
2024/02/27 05:36:47;;;;;;;9;7.2;;;;;;;;;;;;;
2024/02/27 05:39:12;;;;;;;9.9;7;;;;;;;;;;;;;
2024/02/27 05:41:37;;;;;;;8.7;6.9;;;;;;;;;;;;;
2024/02/27 05:44:03;;;;;;;8.8;6.5;;;;;;;;;;;;;
2024/02/27 05:46:27;;;;;;;14.8;9.3;;;;;;;;;;;;;
2024/02/27 05:48:52;;;;;;;12.8;9;;;;;;;;;;;;;
2024/02/27 05:51:19;;;;;;;10.9;8.4;;;;;;;;;;;;;
2024/02/27 05:53:43;;;;;;;11.4;8;;;;;;;;;;;;;
2024/02/27 05:56:07;;;;;;;10.4;7.8;;;;;;;;;;;;;
2024/02/27 05:58:33;;;;;;;10.3;7.8;;;;;;;;;;;;;
2024/02/27 06:00:57;;;;;;;9.8;7.6;;;;;;;;;;;;;
2024/02/27 06:03:22;;;;;;;9.7;7.9;;;;;;;;;;;;;
2024/02/27 06:05:48;;;;;;;11.2;8.1;;;;;;;;;;;;;
2024/02/27 06:08:13;;;;;;;9.9;7.5;;;;;;;;;;;;;
2024/02/27 06:10:38;;;;;;;11.5;8.1;;;;;;;;;;;;;
2024/02/27 06:13:03;;;;;;;10.4;8.1;;;;;;;;;;;;;
2024/02/27 06:15:28;;;;;;;12.5;7.4;;;;;;;;;;;;;
2024/02/27 06:17:53;;;;;;;10.8;7.7;;;;;;;;;;;;;
2024/02/27 06:22:14;;;;;;;11.9;8.3;;;;;;;;;;;;;
2024/02/27 06:22:43;;;;;;;13.6;8.8;;;;;;;;;;;;;
2024/02/27 06:25:10;;;;;;;12.2;8.8;;;;;;;;;;;;;
2024/02/27 06:27:34;;;;;;;11.3;8.9;;;;;;;;;;;;;
2024/02/27 06:29:59;;;;;;;11.9;8.7;;;;;;;;;;;;;
2024/02/27 06:32:24;;;;;;;11.4;8.3;;;;;;;;;;;;;
2024/02/27 06:34:49;;;;;;;12.6;8.8;;;;;;;;;;;;;
2024/02/27 06:37:14;;;;;;;11.5;8.7;;;;;;;;;;;;;
2024/02/27 06:39:39;;;;;;;12.4;8.4;;;;;;;;;;;;;
2024/02/27 06:42:04;;;;;;;10.5;8.3;;;;;;;;;;;;;
2024/02/27 06:44:30;;;;;;;10.8;8.3;;;;;;;;;;;;;
2024/02/27 06:46:55;;;;;;;12.7;8;;;;;;;;;;;;;
2024/02/27 06:49:20;;;;;;;11.5;8.6;;;;;;;;;;;;;
2024/02/27 06:51:46;;;;;;;12.8;8.6;;;;;;;;;;;;;
2024/02/27 06:54:10;;;;;;;11.7;8.1;;;;;;;;;;;;;
2024/02/27 06:56:35;;;;;;;13;8.7;;;;;;;;;;;;;
2024/02/27 06:59:00;;;;;;;11.4;8.6;;;;;;;;;;;;;
2024/02/27 07:01:25;;;;;;;10.6;8.3;;;;;;;;;;;;;
2024/02/27 07:03:50;;;;;;;10.3;8.2;;;;;;;;;;;;;
2024/02/27 07:06:15;;;;;;;11.9;8.3;;;;;;;;;;;;;
2024/02/27 07:08:41;;;;;;;11.8;8.4;;;;;;;;;;;;;
2024/02/27 07:11:06;;;;;;;12;8.6;;;;;;;;;;;;;
2024/02/27 07:13:31;;;;;;;10.2;7.7;;;;;;;;;;;;;
2024/02/27 07:15:56;;;;;;;9.8;7.5;;;;;;;;;;;;;
2024/02/27 07:18:21;;;;;;;10.2;7.9;;;;;;;;;;;;;
2024/02/27 07:20:47;;;;;;;10.2;8.1;;;;;;;;;;;;;
2024/02/27 07:23:12;;;;;;;11.3;8.2;;;;;;;;;;;;;
2024/02/27 07:25:36;;;;;;;10.3;8.3;;;;;;;;;;;;;
2024/02/27 07:28:02;;;;;;;10;7.6;;;;;;;;;;;;;
2024/02/27 07:30:27;;;;;;;11.5;8.8;;;;;;;;;;;;;
2024/02/27 07:32:52;;;;;;;11.2;8.4;;;;;;;;;;;;;
2024/02/27 07:35:17;;;;;;;10.9;8.2;;;;;;;;;;;;;
2024/02/27 07:37:42;;;;;;;9.6;8;;;;;;;;;;;;;
2024/02/27 07:40:07;;;;;;;11.7;7.8;;;;;;;;;;;;;
2024/02/27 07:42:33;;;;;;;10.6;8.2;;;;;;;;;;;;;
2024/02/27 07:44:57;;;;;;;11.9;8.6;;;;;;;;;;;;;
2024/02/27 07:47:22;;;;;;;9.3;8.2;;;;;;;;;;;;;
2024/02/27 07:49:48;;;;;;;11.4;8.5;;;;;;;;;;;;;
2024/02/27 07:52:13;;;;;;;10.4;8.3;;;;;;;;;;;;;
2024/02/27 07:54:38;;;;;;;12.3;9.2;;;;;;;;;;;;;
2024/02/27 07:57:03;;;;;;;11.5;9;;;;;;;;;;;;;
2024/02/27 07:59:28;;;;;;;12.6;9.1;;;;;;;;;;;;;
2024/02/27 08:01:53;;;;;;;13;9.4;;;;;;;;;;;;;
2024/02/27 08:04:19;;;;;;;13.3;9.8;;;;;;;;;;;;;
2024/02/27 08:06:44;;;;;;;12;9.6;;;;;;;;;;;;;
2024/02/27 08:09:09;;;;;;;11.8;9.4;;;;;;;;;;;;;
2024/02/27 08:11:35;;;;;;;14.5;9.8;;;;;;;;;;;;;
2024/02/27 08:14:01;;;;;;;12;8.7;;;;;;;;;;;;;
2024/02/27 08:16:24;;;;;;;11.3;9;;;;;;;;;;;;;
2024/02/27 08:18:49;;;;;;;13.4;9.7;;;;;;;;;;;;;
2024/02/27 08:21:14;;;;;;;14.2;9.4;;;;;;;;;;;;;
2024/02/27 08:23:41;;;;;;;12.9;9.7;;;;;;;;;;;;;
2024/02/27 08:26:06;;;;;;;14.5;10.2;;;;;;;;;;;;;
2024/02/27 08:28:30;;;;;;;13.1;9.8;;;;;;;;;;;;;
2024/02/27 08:30:55;;;;;;;14.9;10;;;;;;;;;;;;;
2024/02/27 08:33:20;;;;;;;13.4;10;;;;;;;;;;;;;
2024/02/27 08:35:45;;;;;;;14;10.1;;;;;;;;;;;;;
2024/02/27 08:38:10;;;;;;;11.3;9.1;;;;;;;;;;;;;
2024/02/27 08:40:35;;;;;;;12.3;10;;;;;;;;;;;;;
2024/02/27 08:43:00;;;;;;;10.4;8.6;;;;;;;;;;;;;
2024/02/27 08:45:26;;;;;;;12.7;8.8;;;;;;;;;;;;;
2024/02/27 08:47:51;;;;;;;11.4;8.4;;;;;;;;;;;;;
2024/02/27 08:50:16;;;;;;;11.2;8.9;;;;;;;;;;;;;
2024/02/27 08:52:42;;;;;;;13;9.3;;;;;;;;;;;;;
2024/02/27 08:55:07;;;;;;;13;9.1;;;;;;;;;;;;;
2024/02/27 08:57:32;;;;;;;11.7;8.7;;;;;;;;;;;;;
2024/02/27 08:59:57;;;;;;;10.9;8.2;;;;;;;;;;;;;
2024/02/27 09:02:23;;;;;;;11.9;8.9;;;;;;;;;;;;;
2024/02/27 09:04:47;;;;;;;12.4;9.1;;;;;;;;;;;;;
2024/02/27 09:07:12;;;;;;;12.6;8.9;;;;;;;;;;;;;
2024/02/27 09:09:37;;;;;;;10.6;8.7;;;;;;;;;;;;;
2024/02/27 09:12:05;;;;;;;12.8;9.2;;;;;;;;;;;;;
2024/02/27 09:14:28;;;;;;;9.4;7.9;;;;;;;;;;;;;
2024/02/27 09:16:53;;;;;;;10.6;8.1;;;;;;;;;;;;;
2024/02/27 09:19:19;;;;;;;10.8;8.1;;;;;;;;;;;;;
2024/02/27 09:21:43;;;;;;;10.3;8;;;;;;;;;;;;;
2024/02/27 09:24:08;;;;;;;9.2;7.8;;;;;;;;;;;;;
2024/02/27 09:26:34;;;;;;;10.4;7.9;;;;;;;;;;;;;
2024/02/27 09:28:59;;;;;;;12.1;8.3;;;;;;;;;;;;;
2024/02/27 09:31:24;;;;;;;9.2;7.7;;;;;;;;;;;;;
2024/02/27 09:33:49;;;;;;;10;7.9;;;;;;;;;;;;;
2024/02/27 09:36:14;;;;;;;10.4;8.2;;;;;;;;;;;;;
2024/02/27 09:38:39;;;;;;;8.6;7.4;;;;;;;;;;;;;
2024/02/27 09:41:04;;;;;;;11.2;7.3;;;;;;;;;;;;;
2024/02/27 09:43:30;;;;;;;8.9;7.5;;;;;;;;;;;;;
2024/02/27 09:45:54;;;;;;;9.8;7.4;;;;;;;;;;;;;
2024/02/27 09:48:21;;;;;;;9.7;7.6;;;;;;;;;;;;;
2024/02/27 09:50:44;;;;;;;9.4;6.8;;;;;;;;;;;;;
2024/02/27 09:53:10;;;;;;;8.7;7.3;;;;;;;;;;;;;
2024/02/27 09:55:35;;;;;;;9.1;7;;;;;;;;;;;;;
2024/02/27 09:58:00;;;;;;;9.8;7.3;;;;;;;;;;;;;
2024/02/27 10:00:25;;;;;;;8.7;6.6;;;;;;;;;;;;;
2024/02/27 10:02:50;;;;;;;8.3;7.2;;;;;;;;;;;;;
2024/02/27 10:05:20;;;;;;;10.5;7.4;;;;;;;;;;;;;
2024/02/27 10:07:40;;;;;;;9.7;8.1;;;;;;;;;;;;;
2024/02/27 10:10:07;;;;;;;12.1;8.2;;;;;;;;;;;;;
2024/02/27 10:12:31;;;;;;;10;7.8;;;;;;;;;;;;;
2024/02/27 10:14:56;;;;;;;9;7.2;;;;;;;;;;;;;
2024/02/27 10:17:21;;;;;;;9.4;7.6;;;;;;;;;;;;;
2024/02/27 10:19:46;;;;;;;10.2;8.2;;;;;;;;;;;;;
2024/02/27 10:22:12;;;;;;;10.1;7.3;;;;;;;;;;;;;
2024/02/27 10:24:36;;;;;;;9.9;7.3;;;;;;;;;;;;;
2024/02/27 10:27:02;;;;;;;10.1;8;;;;;;;;;;;;;
2024/02/27 10:29:26;;;;;;;11.5;8.4;;;;;;;;;;;;;
2024/02/27 10:31:52;;;;;;;10.1;7.8;;;;;;;;;;;;;
2024/02/27 10:34:17;;;;;;;10.1;8.1;;;;;;;;;;;;;
2024/02/27 10:36:42;;;;;;;11.6;8;;;;;;;;;;;;;
2024/02/27 10:39:07;;;;;;;10.9;8.3;;;;;;;;;;;;;
2024/02/27 10:41:32;;;;;;;9.3;7.6;;;;;;;;;;;;;
2024/02/27 10:43:57;;;;;;;11.6;8.4;;;;;;;;;;;;;
2024/02/27 10:46:22;;;;;;;10;8.3;;;;;;;;;;;;;
2024/02/27 10:48:48;;;;;;;9.7;8;;;;;;;;;;;;;
2024/02/27 10:51:13;;;;;;;10.8;8.4;;;;;;;;;;;;;
2024/02/27 10:53:38;;;;;;;11.5;9.2;;;;;;;;;;;;;
2024/02/27 10:56:03;;;;;;;11.2;8.7;;;;;;;;;;;;;
2024/02/27 10:58:28;;;;;;;10.2;8.1;;;;;;;;;;;;;
2024/02/27 11:00:53;;;;;;;13.2;9.3;;;;;;;;;;;;;
2024/02/27 11:03:18;;;;;;;11.6;8.8;;;;;;;;;;;;;
2024/02/27 11:05:43;;;;;;;10.9;8.4;;;;;;;;;;;;;
2024/02/27 11:08:08;;;;;;;11.1;8.7;;;;;;;;;;;;;
2024/02/27 11:10:33;;;;;;;11.7;9.2;;;;;;;;;;;;;
2024/02/27 11:13:00;;;;;;;12.5;9.1;;;;;;;;;;;;;
2024/02/27 11:15:23;;;;;;;12.7;9;;;;;;;;;;;;;
2024/02/27 11:17:49;;;;;;;10.9;8.5;;;;;;;;;;;;;
2024/02/27 11:20:15;;;;;;;11.3;8.4;;;;;;;;;;;;;
2024/02/27 11:22:39;;;;;;;11.7;8.4;;;;;;;;;;;;;
2024/02/27 11:25:05;;;;;;;10.1;8;;;;;;;;;;;;;
2024/02/27 11:27:29;;;;;;;10;7.9;;;;;;;;;;;;;
2024/02/27 11:29:56;;;;;;;10.8;7.9;;;;;;;;;;;;;
2024/02/27 11:32:19;;;;;;;10.2;8;;;;;;;;;;;;;
2024/02/27 11:34:44;;;;;;;9.7;7.7;;;;;;;;;;;;;
2024/02/27 11:37:10;;;;;;;10;7.9;;;;;;;;;;;;;
2024/02/27 11:39:35;;;;;;;10.6;8.3;;;;;;;;;;;;;
2024/02/27 11:42:00;;;;;;;11.3;8.6;;;;;;;;;;;;;
2024/02/27 11:44:25;;;;;;;10.9;8.7;;;;;;;;;;;;;
2024/02/27 11:46:53;;;;;;;10.1;8.4;;;;;;;;;;;;;
2024/02/27 11:49:15;;;;;;;10.7;8;;;;;;;;;;;;;
2024/02/27 11:51:40;;;;;;;9.4;8;;;;;;;;;;;;;
2024/02/27 11:54:05;;;;;;;10.6;7.9;;;;;;;;;;;;;
2024/02/27 11:56:33;;;;;;;10.6;8.5;;;;;;;;;;;;;
2024/02/27 11:58:55;;;;;;;12.5;9.2;;;;;;;;;;;;;
2024/02/27 12:01:22;;;;;;;12.6;8.9;;;;;;;;;;;;;
2024/02/27 12:03:46;;;;;;;12.9;9.3;;;;;;;;;;;;;
2024/02/27 12:06:12;;;;;;;11;8.7;;;;;;;;;;;;;
2024/02/27 12:08:37;;;;;;;13.5;9.4;;;;;;;;;;;;;
2024/02/27 12:11:02;;;;;;;12.5;9.4;;;;;;;;;;;;;
2024/02/27 12:13:27;;;;;;;11.4;8.9;;;;;;;;;;;;;
2024/02/27 12:15:53;;;;;;;12.7;9.5;;;;;;;;;;;;;
2024/02/27 12:18:18;;;;;;;11.8;8.9;;;;;;;;;;;;;
2024/02/27 12:20:44;;;;;;;11.8;9;;;;;;;;;;;;;
2024/02/27 12:23:08;;;;;;;10.6;8.8;;;;;;;;;;;;;
2024/02/27 12:25:33;;;;;;;10.9;8.5;;;;;;;;;;;;;
2024/02/27 12:27:58;;;;;;;11.1;8.5;;;;;;;;;;;;;
2024/02/27 12:30:24;;;;;;;10.1;8.4;;;;;;;;;;;;;
2024/02/27 12:32:48;;;;;;;12.6;8.7;;;;;;;;;;;;;
2024/02/27 12:35:13;;;;;;;11.4;8.8;;;;;;;;;;;;;
2024/02/27 12:37:38;;;;;;;10.7;8.4;;;;;;;;;;;;;
2024/02/27 12:40:04;;;;;;;10.6;8.5;;;;;;;;;;;;;
2024/02/27 12:42:33;;;;;;;11.9;9.1;;;;;;;;;;;;;
2024/02/27 12:44:54;;;;;;;13.8;9.9;;;;;;;;;;;;;
2024/02/27 12:47:19;;;;;;;11.4;8.6;;;;;;;;;;;;;
2024/02/27 12:49:44;;;;;;;12.9;9;;;;;;;;;;;;;
2024/02/27 12:52:09;;;;;;;12.6;9.4;;;;;;;;;;;;;
2024/02/27 12:54:34;;;;;;;14.3;10.1;;;;;;;;;;;;;
2024/02/27 12:56:59;;;;;;;12.3;9.7;;;;;;;;;;;;;
2024/02/27 12:59:24;;;;;;;12.9;10.2;;;;;;;;;;;;;
2024/02/27 13:01:51;;;;;;;15.1;11;;;;;;;;;;;;;
2024/02/27 13:04:15;;;;;;;12.7;9.6;;;;;;;;;;;;;
2024/02/27 13:06:40;;;;;;;12.3;9.9;;;;;;;;;;;;;
2024/02/27 13:09:05;;;;;;;14;9.5;;;;;;;;;;;;;
2024/02/27 13:11:30;;;;;;;14.4;10;;;;;;;;;;;;;
2024/02/27 13:13:55;;;;;;;13;10.3;;;;;;;;;;;;;
2024/02/27 13:16:20;;;;;;;15.2;10.2;;;;;;;;;;;;;
2024/02/27 13:18:45;;;;;;;16.2;11;;;;;;;;;;;;;
2024/02/27 13:21:11;;;;;;;16.4;10.8;;;;;;;;;;;;;
2024/02/27 13:23:35;;;;;;;14.9;10.5;;;;;;;;;;;;;
2024/02/27 13:26:00;;;;;;;16.6;11;;;;;;;;;;;;;
2024/02/27 13:28:27;;;;;;;15.1;10.3;;;;;;;;;;;;;
2024/02/27 13:30:51;;;;;;;13.3;10.1;;;;;;;;;;;;;
2024/02/27 13:33:16;;;;;;;16.8;11.4;;;;;;;;;;;;;
2024/02/27 13:35:41;;;;;;;12.9;10.1;;;;;;;;;;;;;
2024/02/27 13:38:06;;;;;;;14.5;11.1;;;;;;;;;;;;;
2024/02/27 13:40:31;;;;;;;16.1;11.3;;;;;;;;;;;;;
2024/02/27 13:42:56;;;;;;;16.4;11;;;;;;;;;;;;;
2024/02/27 13:45:21;;;;;;;15.7;10.8;;;;;;;;;;;;;
2024/02/27 13:47:46;;;;;;;14.6;10.2;;;;;;;;;;;;;
2024/02/27 13:50:12;;;;;;;13.4;10.1;;;;;;;;;;;;;
2024/02/27 13:52:37;;;;;;;13.9;9.6;;;;;;;;;;;;;
2024/02/27 13:55:04;;;;;;;12.7;9.8;;;;;;;;;;;;;
2024/02/27 13:57:27;;;;;;;17.8;10.4;;;;;;;;;;;;;
2024/02/27 13:59:52;;;;;;;14.3;10.6;;;;;;;;;;;;;
2024/02/27 14:02:17;;;;;;;15.3;10.2;;;;;;;;;;;;;
2024/02/27 14:04:42;;;;;;;14.9;10;;;;;;;;;;;;;
2024/02/27 14:07:09;;;;;;;12.3;9.8;;;;;;;;;;;;;
2024/02/27 14:09:33;;;;;;;12.5;9.7;;;;;;;;;;;;;
2024/02/27 14:11:58;;;;;;;14.4;10;;;;;;;;;;;;;
2024/02/27 14:14:23;;;;;;;15.5;10.3;;;;;;;;;;;;;
2024/02/27 14:16:48;;;;;;;12.9;9.9;;;;;;;;;;;;;
2024/02/27 14:19:13;;;;;;;14.6;10.6;;;;;;;;;;;;;
2024/02/27 14:21:38;;;;;;;15.1;10.7;;;;;;;;;;;;;
2024/02/27 14:24:04;;;;;;;16;10.8;;;;;;;;;;;;;
2024/02/27 14:26:28;;;;;;;13.2;10.4;;;;;;;;;;;;;
2024/02/27 14:28:54;;;;;;;15;10.6;;;;;;;;;;;;;
2024/02/27 14:31:19;;;;;;;16.7;11.1;;;;;;;;;;;;;
2024/02/27 14:33:44;;;;;;;14.4;10.9;;;;;;;;;;;;;
2024/02/27 14:36:11;;;;;;;15.4;11.1;;;;;;;;;;;;;
2024/02/27 14:38:34;;;;;;;14.7;10.8;;;;;;;;;;;;;
2024/02/27 14:40:59;;;;;;;15.9;11.1;;;;;;;;;;;;;
2024/02/27 14:43:24;;;;;;;15.5;11.2;;;;;;;;;;;;;
2024/02/27 14:45:50;;;;;;;14.6;11;;;;;;;;;;;;;
2024/02/27 14:48:14;;;;;;;14.8;10.9;;;;;;;;;;;;;
2024/02/27 14:50:39;;;;;;;15.5;10.9;;;;;;;;;;;;;
2024/02/27 14:53:04;;;;;;;14.4;10.3;;;;;;;;;;;;;
2024/02/27 14:55:29;;;;;;;15.5;11.2;;;;;;;;;;;;;
2024/02/27 14:57:55;;;;;;;15.1;10.6;;;;;;;;;;;;;
2024/02/27 15:00:20;;;;;;;14.6;10.1;;;;;;;;;;;;;
2024/02/27 15:02:45;;;;;;;15.2;10.5;;;;;;;;;;;;;
2024/02/27 15:05:10;;;;;;;15.2;10.6;;;;;;;;;;;;;
2024/02/27 15:07:35;;;;;;;14.3;10.2;;;;;;;;;;;;;
2024/02/27 15:10:00;;;;;;;14.3;11.2;;;;;;;;;;;;;
2024/02/27 15:12:25;;;;;;;14.3;10.8;;;;;;;;;;;;;
2024/02/27 15:14:50;;;;;;;16.5;10.7;;;;;;;;;;;;;
2024/02/27 15:17:15;;;;;;;15.2;11.1;;;;;;;;;;;;;
2024/02/27 15:19:41;;;;;;;16.4;11.5;;;;;;;;;;;;;
2024/02/27 15:22:05;;;;;;;16.4;11;;;;;;;;;;;;;
2024/02/27 15:24:31;;;;;;;14.8;10.3;;;;;;;;;;;;;
2024/02/27 15:26:58;;;;;;;15.1;11.1;;;;;;;;;;;;;
2024/02/27 15:29:21;;;;;;;16.6;11.2;;;;;;;;;;;;;
2024/02/27 15:31:46;;;;;;;18.1;11;;;;;;;;;;;;;
2024/02/27 15:34:11;;;;;;;16.5;11.2;;;;;;;;;;;;;
2024/02/27 15:36:37;;;;;;;17.6;11.8;;;;;;;;;;;;;
2024/02/27 15:39:03;;;;;;;17.4;11.1;;;;;;;;;;;;;
2024/02/27 15:41:26;;;;;;;16.8;11.7;;;;;;;;;;;;;
2024/02/27 15:43:51;;;;;;;15.8;11.6;;;;;;;;;;;;;
2024/02/27 15:46:17;;;;;;;15.3;11.1;;;;;;;;;;;;;
2024/02/27 15:48:42;;;;;;;16.9;11.2;;;;;;;;;;;;;
2024/02/27 15:51:07;;;;;;;16.9;12.6;;;;;;;;;;;;;
2024/02/27 15:53:32;;;;;;;18.1;11.8;;;;;;;;;;;;;
2024/02/27 15:55:57;;;;;;;16.8;11.8;;;;;;;;;;;;;
2024/02/27 15:58:23;;;;;;;18.6;11.3;;;;;;;;;;;;;
2024/02/27 16:00:47;;;;;;;18.1;12.2;;;;;;;;;;;;;
2024/02/27 16:03:12;;;;;;;18.4;11.6;;;;;;;;;;;;;
2024/02/27 16:05:37;;;;;;;16.4;12;;;;;;;;;;;;;
2024/02/27 16:08:02;;;;;;;17.2;12.1;;;;;;;;;;;;;
2024/02/27 16:10:28;;;;;;;16.9;12.2;;;;;;;;;;;;;
2024/02/27 16:12:53;;;;;;;17.7;12.5;;;;;;;;;;;;;
2024/02/27 16:15:19;;;;;;;21.1;12.1;;;;;;;;;;;;;
2024/02/27 16:17:43;;;;;;;19.2;12.2;;;;;;;;;;;;;
2024/02/27 16:20:09;;;;;;;21;11.9;;;;;;;;;;;;;
2024/02/27 16:22:33;;;;;;;18.7;12.1;;;;;;;;;;;;;
2024/02/27 16:24:59;;;;;;;19.2;12.1;;;;;;;;;;;;;
2024/02/27 16:27:24;;;;;;;20.2;13.4;;;;;;;;;;;;;
2024/02/27 16:29:48;;;;;;;21.2;13;;;;;;;;;;;;;
2024/02/27 16:32:13;;;;;;;19.7;12;;;;;;;;;;;;;
2024/02/27 16:34:39;;;;;;;20.9;13.3;;;;;;;;;;;;;
2024/02/27 16:37:04;;;;;;;18.8;12.7;;;;;;;;;;;;;
2024/02/27 16:39:29;;;;;;;20.2;12.2;;;;;;;;;;;;;
2024/02/27 16:41:54;;;;;;;18.8;12.8;;;;;;;;;;;;;
2024/02/27 16:44:19;;;;;;;19.1;12.5;;;;;;;;;;;;;
2024/02/27 16:46:44;;;;;;;20.6;12.5;;;;;;;;;;;;;
2024/02/27 16:49:09;;;;;;;18;12.8;;;;;;;;;;;;;
2024/02/27 16:51:34;;;;;;;21;13.3;;;;;;;;;;;;;
2024/02/27 16:54:00;;;;;;;19.9;12.6;;;;;;;;;;;;;
2024/02/27 16:56:25;;;;;;;19.1;12.4;;;;;;;;;;;;;
2024/02/27 16:58:51;;;;;;;20.1;12.7;;;;;;;;;;;;;
2024/02/27 17:01:15;;;;;;;20.2;12.3;;;;;;;;;;;;;
2024/02/27 17:03:40;;;;;;;18.7;12.7;;;;;;;;;;;;;
2024/02/27 17:06:05;;;;;;;20;13.2;;;;;;;;;;;;;
2024/02/27 17:08:30;;;;;;;20.9;12.8;;;;;;;;;;;;;
2024/02/27 17:10:55;;;;;;;20.2;12.6;;;;;;;;;;;;;
2024/02/27 17:13:21;;;;;;;19.1;13.1;;;;;;;;;;;;;
2024/02/27 17:15:46;;;;;;;18.2;12.5;;;;;;;;;;;;;
2024/02/27 17:18:11;;;;;;;19.5;12.5;;;;;;;;;;;;;
2024/02/27 17:20:36;;;;;;;19.6;13.5;;;;;;;;;;;;;
2024/02/27 17:23:02;;;;;;;17.4;12.1;;;;;;;;;;;;;
2024/02/27 17:25:26;;;;;;;16.9;12.3;;;;;;;;;;;;;
2024/02/27 17:27:51;;;;;;;18.1;12.8;;;;;;;;;;;;;
2024/02/27 17:30:16;;;;;;;19.2;13;;;;;;;;;;;;;
2024/02/27 17:32:41;;;;;;;20.2;12.4;;;;;;;;;;;;;
2024/02/27 17:35:07;;;;;;;20.6;13;;;;;;;;;;;;;
2024/02/27 17:37:32;;;;;;;18;11.5;;;;;;;;;;;;;
2024/02/27 17:39:57;;;;;;;19.9;12.4;;;;;;;;;;;;;
2024/02/27 17:42:24;;;;;;;17.5;12.2;;;;;;;;;;;;;
2024/02/27 17:44:47;;;;;;;17.2;12.2;;;;;;;;;;;;;
2024/02/27 17:47:12;;;;;;;17.8;12.6;;;;;;;;;;;;;
2024/02/27 17:49:39;;;;;;;20.4;13.2;;;;;;;;;;;;;
2024/02/27 17:52:03;;;;;;;17.1;11.9;;;;;;;;;;;;;
2024/02/27 17:54:27;;;;;;;19;12.1;;;;;;;;;;;;;
2024/02/27 17:56:52;;;;;;;19.3;12.8;;;;;;;;;;;;;
2024/02/27 17:59:17;;;;;;;20;12.6;;;;;;;;;;;;;
2024/02/27 18:01:43;;;;;;;18.7;12.6;;;;;;;;;;;;;
2024/02/27 18:04:08;;;;;;;18.6;12.5;;;;;;;;;;;;;
2024/02/27 18:06:33;;;;;;;20.4;12.9;;;;;;;;;;;;;
2024/02/27 18:08:58;;;;;;;19.2;12.3;;;;;;;;;;;;;
2024/02/27 18:11:23;;;;;;;19.3;12.9;;;;;;;;;;;;;
2024/02/27 18:13:48;;;;;;;20.7;13;;;;;;;;;;;;;
2024/02/27 18:16:13;;;;;;;22.3;12.9;;;;;;;;;;;;;
2024/02/27 18:18:38;;;;;;;20.6;13.3;;;;;;;;;;;;;
2024/02/27 18:21:03;;;;;;;19.9;12.8;;;;;;;;;;;;;
2024/02/27 18:23:30;;;;;;;18.8;11.9;;;;;;;;;;;;;
2024/02/27 18:25:53;;;;;;;21.4;13.3;;;;;;;;;;;;;
2024/02/27 18:28:19;;;;;;;18.3;12;;;;;;;;;;;;;
2024/02/27 18:30:45;;;;;;;20.9;12.7;;;;;;;;;;;;;
2024/02/27 18:33:09;;;;;;;18.6;11.6;;;;;;;;;;;;;
2024/02/27 18:35:34;;;;;;;20.1;11.8;;;;;;;;;;;;;
2024/02/27 18:38:00;;;;;;;22.9;12.9;;;;;;;;;;;;;
2024/02/27 18:40:25;;;;;;;18.5;12.2;;;;;;;;;;;;;
2024/02/27 18:42:50;;;;;;;19.7;11.7;;;;;;;;;;;;;
2024/02/27 18:45:15;;;;;;;21;11.8;;;;;;;;;;;;;
2024/02/27 18:47:39;;;;;;;19.8;11.5;;;;;;;;;;;;;
2024/02/27 18:50:04;;;;;;;19.1;11.7;;;;;;;;;;;;;
2024/02/27 18:52:30;;;;;;;16.9;11.3;;;;;;;;;;;;;
2024/02/27 18:54:55;;;;;;;18.2;11.8;;;;;;;;;;;;;
2024/02/27 18:57:20;;;;;;;17.3;11.3;;;;;;;;;;;;;
2024/02/27 18:59:45;;;;;;;19.6;11.5;;;;;;;;;;;;;
2024/02/27 19:02:10;;;;;;;19.6;11.8;;;;;;;;;;;;;
2024/02/27 19:04:35;;;;;;;18;11.4;;;;;;;;;;;;;
2024/02/27 19:07:01;;;;;;;19.4;12;;;;;;;;;;;;;
2024/02/27 19:09:26;;;;;;;18.7;11.7;;;;;;;;;;;;;
2024/02/27 19:11:50;;;;;;;18;11.4;;;;;;;;;;;;;
2024/02/27 19:14:15;;;;;;;18.7;11.1;;;;;;;;;;;;;
2024/02/27 19:16:40;;;;;;;16.6;11.1;;;;;;;;;;;;;
2024/02/27 19:19:06;;;;;;;16.4;11.3;;;;;;;;;;;;;
2024/02/27 19:21:31;;;;;;;19.1;11.5;;;;;;;;;;;;;
2024/02/27 19:23:58;;;;;;;17.8;10.9;;;;;;;;;;;;;
2024/02/27 19:26:21;;;;;;;18.7;11.4;;;;;;;;;;;;;
2024/02/27 19:28:46;;;;;;;16.4;11.3;;;;;;;;;;;;;
2024/02/27 19:31:12;;;;;;;17.4;11.7;;;;;;;;;;;;;
2024/02/27 19:33:36;;;;;;;17.8;11.2;;;;;;;;;;;;;
2024/02/27 19:36:01;;;;;;;17.7;11.5;;;;;;;;;;;;;
2024/02/27 19:38:26;;;;;;;16.5;10.7;;;;;;;;;;;;;
2024/02/27 19:40:51;;;;;;;16;11.4;;;;;;;;;;;;;
2024/02/27 19:43:17;;;;;;;16.1;11.1;;;;;;;;;;;;;
2024/02/27 19:45:43;;;;;;;15.6;11;;;;;;;;;;;;;
2024/02/27 19:48:07;;;;;;;15.3;10.9;;;;;;;;;;;;;
2024/02/27 19:50:32;;;;;;;16.9;10.7;;;;;;;;;;;;;
2024/02/27 19:52:57;;;;;;;15.9;10.3;;;;;;;;;;;;;
2024/02/27 19:55:22;;;;;;;16.3;10.6;;;;;;;;;;;;;
2024/02/27 19:57:47;;;;;;;18.2;10.7;;;;;;;;;;;;;
2024/02/27 20:00:12;;;;;;;17.2;10.7;;;;;;;;;;;;;
2024/02/27 20:02:37;;;;;;;18.9;11.2;;;;;;;;;;;;;
2024/02/27 20:05:03;;;;;;;18.1;11.3;;;;;;;;;;;;;
2024/02/27 20:07:27;;;;;;;17.1;11.4;;;;;;;;;;;;;
2024/02/27 20:09:53;;;;;;;15.3;10.8;;;;;;;;;;;;;